Time;durP1;ratioP1;P1;durP2;ratioP2;P2;SDS_P1;SDS_P2;PMS_P1;PMS_P2;Temp;Humidity;BMP_temperature;BMP_pressure;BME280_temperature;BME280_humidity;BME280_pressure;Samples;Min_cycle;Max_cycle;Signal;HPM_P1;HPM_P2
2021/05/28 00:00:52;;;;;;;6.97;5.47;;;;;;;41.63;40.42;162183.63;1653652;86;21255;-80
2021/05/28 00:03:25;;;;;;;6.53;5.42;;;;;;;41.74;40.29;162214.47;1680816;84;21185;-80
2021/05/28 00:05:57;;;;;;;6.15;5.53;;;;;;;41.58;40.39;162171.53;1679786;85;21235;-81
2021/05/28 00:08:29;;;;;;;6.62;5.67;;;;;;;41.48;40.56;162143.27;1676395;85;21289;-81
2021/05/28 00:11:02;;;;;;;4.65;4.25;;;;;;;41.55;40.50;162162.09;1681520;85;21951;-81
2021/05/28 00:13:34;;;;;;;9.50;5.95;;;;;;;41.50;40.47;162149.97;1680464;85;21273;-81
2021/05/28 00:16:06;;;;;;;9.55;5.78;;;;;;;41.47;40.56;162140.58;1668268;85;21500;-81
2021/05/28 00:18:39;;;;;;;7.47;5.65;;;;;;;41.35;40.64;162109.73;1656919;85;21207;-81
2021/05/28 00:21:11;;;;;;;7.37;5.33;;;;;;;41.29;40.78;162092.28;1685077;84;21238;-81
2021/05/28 00:23:45;;;;;;;7.92;6.12;;;;;;;41.20;40.95;162068.13;1689066;84;21258;-80
2021/05/28 00:26:17;;;;;;;8.10;5.85;;;;;;;41.27;40.88;162088.22;1690159;83;21336;-80
2021/05/28 00:28:50;;;;;;;6.78;5.60;;;;;;;41.17;40.97;162060.06;1689474;84;21863;-80
2021/05/28 00:31:22;;;;;;;6.67;5.40;;;;;;;41.11;41.13;162043.88;1689422;83;21398;-80
2021/05/28 00:33:54;;;;;;;6.40;5.58;;;;;;;41.22;40.98;162074.81;1676587;84;21226;-80
2021/05/28 00:36:27;;;;;;;12.07;6.42;;;;;;;41.19;41.06;162065.44;1682262;85;21283;-81
2021/05/28 00:38:59;;;;;;;6.87;5.90;;;;;;;41.18;41.07;162062.75;1685562;84;21199;-81
2021/05/28 00:41:32;;;;;;;7.55;6.15;;;;;;;41.37;40.80;162115.11;1691020;84;21336;-81
2021/05/28 00:44:05;;;;;;;8.78;6.22;;;;;;;41.33;40.86;162104.34;1690198;84;21309;-81
2021/05/28 00:46:37;;;;;;;7.20;6.15;;;;;;;41.29;40.92;162092.28;1688035;84;21843;-79
2021/05/28 00:49:10;;;;;;;8.05;6.40;;;;;;;41.26;40.93;162085.53;1687156;85;21836;-80
2021/05/28 00:51:43;;;;;;;8.38;6.17;;;;;;;41.18;41.03;162062.75;1689791;83;21685;-80
2021/05/28 00:54:15;;;;;;;10.53;6.67;;;;;;;41.08;41.22;162037.17;1681212;85;21355;-80
2021/05/28 00:56:49;;;;;;;9.98;6.85;;;;;;;41.04;41.22;162026.42;1683059;83;21170;-80
2021/05/28 00:59:21;;;;;;;10.15;6.67;;;;;;;41.16;41.06;162057.38;1673676;85;21233;-80
2021/05/28 01:01:54;;;;;;;11.43;6.80;;;;;;;40.99;41.32;162011.66;1690973;83;21344;-81
2021/05/28 01:04:27;;;;;;;10.20;6.30;;;;;;;41.03;41.23;162022.41;1680223;85;21242;-81
2021/05/28 01:07:00;;;;;;;10.38;6.05;;;;;;;41.03;41.26;162023.72;1681635;84;22610;-80
2021/05/28 01:09:33;;;;;;;10.53;6.70;;;;;;;41.01;41.25;162017.03;1690717;84;21333;-81
2021/05/28 01:12:05;;;;;;;8.50;7.20;;;;;;;41.08;41.15;162035.86;1690031;84;21939;-81
2021/05/28 01:14:38;;;;;;;10.43;6.92;;;;;;;40.96;41.29;162004.95;1690625;84;21843;-80
2021/05/28 01:17:10;;;;;;;8.98;6.90;;;;;;;41.00;41.25;162015.72;1690592;84;21281;-80
2021/05/28 01:19:55;;;;;;;9.50;6.65;;;;;;;41.10;41.16;162041.19;1690552;84;21194;-80
2021/05/28 01:22:27;;;;;;;7.72;6.67;;;;;;;41.05;41.21;162027.78;1674204;85;21332;-81
2021/05/28 01:25:00;;;;;;;7.53;6.30;;;;;;;40.93;41.31;161995.58;1693268;83;21712;-80
2021/05/28 01:27:32;;;;;;;9.50;6.58;;;;;;;40.84;41.44;161971.42;1691668;84;21512;-81
2021/05/28 01:30:07;;;;;;;7.92;6.75;;;;;;;40.86;41.45;161976.75;1691395;84;21364;-81
2021/05/28 01:32:39;;;;;;;8.10;6.58;;;;;;;40.88;41.37;161982.13;1690771;84;21291;-81
2021/05/28 01:35:14;;;;;;;8.00;6.97;;;;;;;40.72;41.54;161937.80;1691129;84;21324;-80
2021/05/28 01:37:47;;;;;;;8.30;6.90;;;;;;;40.87;41.34;161979.44;1691358;85;21347;-80
2021/05/28 01:40:21;;;;;;;7.60;6.62;;;;;;;40.94;41.19;161998.27;1691924;84;21387;-81
2021/05/28 01:42:54;;;;;;;8.55;6.03;;;;;;;40.91;41.27;161990.19;1681360;85;21756;-80
2021/05/28 01:45:27;;;;;;;7.20;6.00;;;;;;;40.85;41.34;161972.75;1663888;86;21361;-81
2021/05/28 01:47:59;;;;;;;10.25;7.03;;;;;;;40.87;41.25;161979.44;1672877;85;21311;-81
2021/05/28 01:50:43;;;;;;;8.33;6.80;;;;;;;40.77;41.35;161952.61;1675940;85;21911;-81
2021/05/28 01:53:05;;;;;;;8.75;6.75;;;;;;;40.78;41.45;161953.98;1690580;83;21217;-81
2021/05/28 01:55:39;;;;;;;7.45;6.45;;;;;;;40.64;41.61;161917.66;1692244;83;21363;-81
2021/05/28 01:58:12;;;;;;;8.78;6.47;;;;;;;40.60;41.74;161906.97;1691490;85;21213;-80
2021/05/28 02:00:48;;;;;;;7.47;6.55;;;;;;;40.57;41.81;161898.91;1692069;84;21320;-81
2021/05/28 02:03:22;;;;;;;8.08;6.62;;;;;;;40.52;41.85;161884.13;1677022;84;21820;-81
2021/05/28 02:05:55;;;;;;;10.78;7.15;;;;;;;40.48;41.92;161874.75;1683774;85;21725;-80
2021/05/28 02:08:29;;;;;;;8.68;7.10;;;;;;;40.46;41.95;161868.00;1692340;84;21289;-81
2021/05/28 02:11:02;;;;;;;9.13;7.35;;;;;;;40.44;42.07;161864.00;1671395;85;21229;-81
2021/05/28 02:13:35;;;;;;;9.93;7.25;;;;;;;40.29;42.21;161823.69;1689206;84;21281;-81
2021/05/28 02:16:07;;;;;;;8.50;6.55;;;;;;;40.44;42.10;161864.00;1683632;83;21170;-81
2021/05/28 02:18:40;;;;;;;10.15;7.53;;;;;;;40.32;42.16;161831.75;1691947;85;21458;-81
2021/05/28 02:21:12;;;;;;;9.28;7.00;;;;;;;40.34;42.16;161837.17;1692117;84;21340;-81
2021/05/28 02:23:45;;;;;;;10.43;7.97;;;;;;;40.32;42.20;161830.44;1684621;85;21762;-81
2021/05/28 02:26:17;;;;;;;10.95;8.30;;;;;;;40.26;42.29;161815.67;1687559;85;21190;-80
2021/05/28 02:28:50;;;;;;;9.93;8.00;;;;;;;40.25;42.29;161811.63;1688077;85;21226;-81
2021/05/28 02:31:22;;;;;;;11.63;9.00;;;;;;;40.15;42.47;161786.16;1693830;84;21355;-81
2021/05/28 02:33:54;;;;;;;9.58;7.80;;;;;;;40.21;42.38;161802.23;1691424;85;21362;-80
2021/05/28 02:36:27;;;;;;;10.32;8.13;;;;;;;40.20;42.52;161799.55;1654735;86;21208;-80
2021/05/28 02:38:59;;;;;;;10.72;8.43;;;;;;;40.31;42.36;161827.75;1665528;85;21226;-80
2021/05/28 02:41:32;;;;;;;9.75;7.67;;;;;;;40.33;42.34;161834.48;1664711;86;21466;-81
2021/05/28 02:44:05;;;;;;;9.70;7.97;;;;;;;40.34;42.40;161835.81;1688100;85;21178;-81
2021/05/28 02:46:38;;;;;;;12.13;7.90;;;;;;;40.33;42.38;161834.48;1688177;85;21202;-80
2021/05/28 02:49:10;;;;;;;13.50;8.23;;;;;;;40.22;42.55;161804.92;1686059;85;21409;-80
2021/05/28 02:51:42;;;;;;;9.80;8.40;;;;;;;40.16;42.66;161787.48;1685630;85;21392;-80
2021/05/28 02:54:15;;;;;;;10.13;8.50;;;;;;;40.16;42.69;161788.80;1685606;84;21772;-80
2021/05/28 02:56:47;;;;;;;9.78;8.25;;;;;;;40.28;42.51;161819.69;1686902;85;21867;-81
2021/05/28 02:59:19;;;;;;;10.88;8.58;;;;;;;40.18;42.64;161794.17;1686373;85;21216;-80
2021/05/28 03:01:51;;;;;;;12.23;9.13;;;;;;;40.19;42.66;161796.86;1633722;86;21673;-81
2021/05/28 03:04:24;;;;;;;11.03;8.63;;;;;;;40.13;42.69;161780.78;1665157;86;21228;-81
2021/05/28 03:06:56;;;;;;;13.98;10.08;;;;;;;40.19;42.68;161796.86;1623136;88;21316;-81
2021/05/28 03:09:28;;;;;;;13.38;9.68;;;;;;;40.21;42.63;161800.92;1658621;86;21189;-80
2021/05/28 03:12:00;;;;;;;10.23;8.05;;;;;;;40.14;42.81;161783.47;1688321;85;21395;-79
2021/05/28 03:14:33;;;;;;;12.70;9.13;;;;;;;40.33;42.54;161833.13;1688357;85;21249;-80
2021/05/28 03:17:05;;;;;;;11.20;9.70;;;;;;;40.20;42.71;161798.23;1687598;85;21220;-80
2021/05/28 03:19:43;;;;;;;11.05;9.30;;;;;;;40.13;42.88;161780.78;1621314;86;21235;-80
2021/05/28 03:22:33;;;;;;;11.38;8.40;;;;;;;40.16;42.80;161787.48;1685316;85;21269;-81
2021/05/28 03:25:11;;;;;;;11.53;7.95;;;;;;;40.11;42.90;161774.05;1708025;84;21338;-80
2021/05/28 03:27:48;;;;;;;9.78;8.45;;;;;;;40.11;42.97;161774.05;1706535;84;21303;-80
2021/05/28 03:30:19;;;;;;;10.43;8.30;;;;;;;40.16;42.97;161787.48;1704869;84;21231;-80
2021/05/28 03:32:51;;;;;;;10.32;8.73;;;;;;;40.19;42.90;161796.86;1696399;84;21374;-81
2021/05/28 03:35:23;;;;;;;12.07;8.53;;;;;;;40.22;42.97;161803.61;1691593;84;21355;-81
2021/05/28 03:37:56;;;;;;;9.73;8.60;;;;;;;40.24;42.96;161808.94;1704523;84;21219;-81
2021/05/28 03:40:29;;;;;;;10.45;8.53;;;;;;;40.45;42.70;161866.69;1703795;84;21219;-81
2021/05/28 03:43:01;;;;;;;9.38;7.97;;;;;;;40.41;42.71;161854.63;1696037;84;21366;-81
2021/05/28 03:45:34;;;;;;;9.65;8.33;;;;;;;40.58;42.52;161901.59;1702305;84;21344;-81
2021/05/28 03:48:06;;;;;;;8.33;7.53;;;;;;;40.52;42.68;161884.13;1702939;84;21326;-80
2021/05/28 03:50:39;;;;;;;9.18;8.08;;;;;;;40.44;42.82;161862.69;1694513;84;21292;-81
2021/05/28 03:53:11;;;;;;;10.82;8.53;;;;;;;40.48;42.84;161874.75;1692933;84;21224;-81
2021/05/28 03:55:44;;;;;;;8.85;7.95;;;;;;;40.43;42.88;161861.31;1702428;84;21181;-81
2021/05/28 03:58:17;;;;;;;10.53;7.97;;;;;;;40.48;42.95;161874.75;1702295;84;21165;-80
2021/05/28 04:00:49;;;;;;;10.38;8.70;;;;;;;40.45;43.11;161865.38;1694733;84;21287;-80
2021/05/28 04:03:21;;;;;;;10.70;8.95;;;;;;;40.41;43.28;161855.94;1701843;84;21239;-80
2021/05/28 04:05:54;;;;;;;9.65;8.55;;;;;;;40.34;43.32;161837.17;1701179;84;21213;-80
2021/05/28 04:08:27;;;;;;;13.58;8.88;;;;;;;40.37;43.25;161845.23;1702094;84;21338;-83
2021/05/28 04:11:00;;;;;;;10.18;7.90;;;;;;;40.31;43.28;161829.06;1699210;84;21229;-83
2021/05/28 04:13:33;;;;;;;13.75;8.00;;;;;;;40.33;43.32;161834.48;1701855;84;21422;-84
2021/05/28 04:16:05;;;;;;;10.60;8.05;;;;;;;40.29;43.41;161822.37;1674669;85;21343;-84
2021/05/28 04:18:38;;;;;;;11.08;8.95;;;;;;;40.11;43.66;161774.05;1702307;84;21807;-84
2021/05/28 04:21:11;;;;;;;12.13;9.13;;;;;;;40.33;43.33;161834.48;1673081;85;21331;-84
2021/05/28 04:23:43;;;;;;;11.83;9.00;;;;;;;40.32;43.50;161831.75;1661202;86;21328;-85
2021/05/28 04:26:16;;;;;;;13.28;10.13;;;;;;;40.23;43.66;161807.61;1695614;84;21244;-83
2021/05/28 04:28:49;;;;;;;10.72;9.63;;;;;;;40.19;43.80;161796.86;1695015;84;21224;-84
2021/05/28 04:31:21;;;;;;;12.78;10.08;;;;;;;40.19;44.03;161796.86;1694542;84;21191;-85
2021/05/28 04:33:53;;;;;;;19.87;10.25;;;;;;;40.54;43.55;161890.83;1696772;84;21765;-84
2021/05/28 04:36:25;;;;;;;11.50;8.98;;;;;;;40.34;43.87;161837.17;1707977;82;21393;-84
2021/05/28 04:38:58;;;;;;;9.68;8.38;;;;;;;40.23;44.17;161807.61;1707308;84;21377;-83
2021/05/28 04:41:31;;;;;;;10.63;8.48;;;;;;;40.20;44.21;161799.55;1708792;83;21437;-84
2021/05/28 04:44:04;;;;;;;9.63;8.50;;;;;;;40.23;44.46;161806.25;1707666;84;21397;-83
2021/05/28 04:46:38;;;;;;;9.28;8.20;;;;;;;40.27;44.47;161817.00;1706838;84;21730;-83
2021/05/28 04:49:10;;;;;;;14.23;9.73;;;;;;;40.28;44.49;161819.69;1698371;84;21378;-84
2021/05/28 04:51:42;;;;;;;17.30;8.33;;;;;;;40.28;44.30;161819.69;1697879;84;21742;-84
2021/05/28 04:54:14;;;;;;;12.70;9.40;;;;;;;40.45;44.10;161865.38;1708176;83;21330;-84
2021/05/28 04:56:47;;;;;;;11.30;9.75;;;;;;;40.41;44.24;161855.94;1707384;84;21406;-85
2021/05/28 04:59:19;;;;;;;11.80;9.58;;;;;;;40.43;44.18;161860.00;1699430;84;21179;-83
2021/05/28 05:01:52;;;;;;;12.35;9.33;;;;;;;40.57;44.01;161898.91;1693367;84;21374;-82
2021/05/28 05:04:24;;;;;;;16.40;10.82;;;;;;;40.65;43.94;161920.34;1699100;84;21221;-82
2021/05/28 05:06:56;;;;;;;14.47;10.05;;;;;;;40.60;44.28;161905.59;1691308;84;21176;-82
2021/05/28 05:09:29;;;;;;;14.43;10.85;;;;;;;40.59;44.42;161904.28;1703015;84;21346;-83
2021/05/28 05:12:02;;;;;;;12.47;9.90;;;;;;;40.67;44.40;161925.72;1703017;84;21925;-84
2021/05/28 05:14:34;;;;;;;13.53;10.05;;;;;;;40.64;44.50;161917.66;1703032;84;21374;-81
2021/05/28 05:17:07;;;;;;;12.43;9.95;;;;;;;40.52;44.76;161885.45;1696337;83;21200;-83
2021/05/28 05:19:39;;;;;;;13.08;9.90;;;;;;;40.67;44.50;161924.41;1689894;83;21200;-81
2021/05/28 05:22:13;;;;;;;13.03;9.75;;;;;;;40.81;44.15;161962.00;1680964;84;21343;-81
2021/05/28 05:24:46;;;;;;;12.33;10.08;;;;;;;40.74;44.44;161943.17;1686880;84;21188;-82
2021/05/28 05:27:20;;;;;;;13.78;10.28;;;;;;;40.64;44.71;161916.34;1681068;84;21873;-83
2021/05/28 05:29:53;;;;;;;12.93;10.03;;;;;;;40.85;44.45;161972.75;1682873;84;21661;-81
2021/05/28 05:32:25;;;;;;;13.13;10.70;;;;;;;40.81;44.47;161963.36;1694488;82;21259;-81
2021/05/28 05:34:57;;;;;;;18.50;10.78;;;;;;;40.88;44.42;161980.81;1684449;84;21212;-83
2021/05/28 05:37:30;;;;;;;15.93;10.65;;;;;;;40.83;44.52;161967.37;1681467;84;21243;-83
2021/05/28 05:40:02;;;;;;;13.03;10.63;;;;;;;40.85;44.34;161972.75;1678850;84;21232;-84
2021/05/28 05:42:37;;;;;;;15.48;11.38;;;;;;;41.09;43.99;162038.48;1678045;84;21244;-83
2021/05/28 05:45:11;;;;;;;17.10;10.63;;;;;;;41.10;43.96;162041.19;1679216;84;21319;-84
2021/05/28 05:47:44;;;;;;;14.68;10.75;;;;;;;41.18;43.87;162064.06;1677158;83;21267;-83
2021/05/28 05:50:16;;;;;;;17.87;11.97;;;;;;;41.15;43.93;162054.69;1676941;84;21343;-85
2021/05/28 05:52:48;;;;;;;13.50;10.88;;;;;;;41.20;43.87;162068.13;1683322;84;21748;-83
2021/05/28 05:55:23;;;;;;;14.50;11.03;;;;;;;41.22;43.93;162074.81;1679576;84;21877;-82
2021/05/28 05:57:55;;;;;;;15.60;11.78;;;;;;;40.94;44.23;161999.58;1680820;84;21739;-82
2021/05/28 06:00:28;;;;;;;12.55;10.25;;;;;;;40.89;44.43;161984.81;1681257;84;21949;-82
2021/05/28 06:03:01;;;;;;;16.87;11.03;;;;;;;40.45;45.83;161865.38;1679759;83;21342;-83
2021/05/28 06:05:33;;;;;;;19.07;12.23;;;;;;;39.75;46.88;161676.09;1676897;84;21346;-82
2021/05/28 06:08:07;;;;;;;16.25;12.30;;;;;;;40.22;45.68;161803.61;1690284;84;21915;-83
2021/05/28 06:10:40;;;;;;;19.48;12.37;;;;;;;40.95;45.48;162000.95;1678878;84;21394;-82
2021/05/28 06:13:12;;;;;;;16.62;12.82;;;;;;;41.23;44.73;162076.14;1685111;84;21401;-83
2021/05/28 06:15:45;;;;;;;16.70;13.22;;;;;;;41.74;43.83;162214.47;1675117;84;21430;-82
2021/05/28 06:18:17;;;;;;;17.70;13.22;;;;;;;41.48;44.08;162144.64;1682360;83;21220;-83
2021/05/28 06:20:50;;;;;;;17.48;13.18;;;;;;;41.50;44.06;162149.97;1683827;84;21410;-83
2021/05/28 06:23:23;;;;;;;17.85;14.18;;;;;;;41.41;44.30;162125.81;1684322;84;21394;-82
2021/05/28 06:25:57;;;;;;;20.85;13.10;;;;;;;40.91;45.70;161991.52;1682108;84;21264;-82
2021/05/28 06:28:29;;;;;;;19.32;13.00;;;;;;;41.12;44.79;162046.56;1670830;84;21221;-82
2021/05/28 06:31:01;;;;;;;24.02;14.35;;;;;;;41.27;45.07;162086.89;1670697;85;21373;-82
2021/05/28 06:33:34;;;;;;;17.50;13.83;;;;;;;41.64;44.32;162187.63;1659661;83;21325;-82
2021/05/28 06:36:06;;;;;;;20.50;14.50;;;;;;;41.81;44.18;162231.94;1659547;84;21391;-84
2021/05/28 06:38:40;;;;;;;18.27;13.60;;;;;;;42.14;44.17;162321.98;1660699;83;21258;-83
2021/05/28 06:41:12;;;;;;;18.65;14.13;;;;;;;41.96;44.10;162274.98;1660178;83;21202;-83
2021/05/28 06:43:45;;;;;;;19.30;13.95;;;;;;;41.74;44.54;162213.16;1661244;83;21238;-82
2021/05/28 06:46:18;;;;;;;19.85;14.55;;;;;;;41.91;44.11;162261.47;1663138;84;21285;-83
2021/05/28 06:48:53;;;;;;;19.82;13.40;;;;;;;41.98;43.95;162278.98;1677470;85;21190;-83
2021/05/28 06:51:25;;;;;;;19.57;13.43;;;;;;;41.94;44.09;162269.55;1663766;83;21277;-83
2021/05/28 06:53:58;;;;;;;16.20;13.05;;;;;;;42.00;44.08;162284.38;1671401;84;21253;-82
2021/05/28 06:56:31;;;;;;;17.07;12.68;;;;;;;42.00;44.26;162285.75;1667640;83;21183;-83
2021/05/28 06:59:07;;;;;;;18.75;13.85;;;;;;;42.07;44.31;162304.52;1672799;83;21400;-84
2021/05/28 07:01:39;;;;;;;18.17;13.03;;;;;;;42.14;44.29;162321.98;1661839;84;22273;-83
2021/05/28 07:04:12;;;;;;;15.13;11.57;;;;;;;42.17;44.25;162331.38;1660955;83;21336;-83
2021/05/28 07:06:46;;;;;;;15.08;12.23;;;;;;;42.24;44.26;162348.84;1661126;84;21376;-83
2021/05/28 07:09:19;;;;;;;15.65;11.43;;;;;;;42.23;44.15;162347.52;1660250;84;21262;-83
2021/05/28 07:11:51;;;;;;;12.53;10.28;;;;;;;42.15;44.41;162326.00;1660716;84;21404;-83
2021/05/28 07:14:25;;;;;;;13.28;9.18;;;;;;;42.61;43.91;162449.63;1664286;84;21170;-82
2021/05/28 07:16:59;;;;;;;11.30;9.18;;;;;;;42.35;44.39;162378.44;1665509;83;21250;-88
2021/05/28 07:19:33;;;;;;;10.82;8.63;;;;;;;42.45;44.48;162406.67;1662407;85;21253;-82
2021/05/28 07:22:05;;;;;;;13.48;8.85;;;;;;;42.44;44.60;162403.97;1663976;85;21199;-83
2021/05/28 07:24:39;;;;;;;13.80;10.00;;;;;;;42.63;44.05;162455.02;1666094;84;22062;-85
2021/05/28 07:27:11;;;;;;;12.65;9.63;;;;;;;42.54;44.21;162430.84;1661737;84;21249;-84
2021/05/28 07:29:44;;;;;;;12.43;8.68;;;;;;;42.79;43.62;162496.70;1666590;85;21792;-82
2021/05/28 07:32:18;;;;;;;11.60;9.63;;;;;;;42.78;43.70;162494.02;1668113;83;21237;-85
2021/05/28 07:34:51;;;;;;;11.35;9.83;;;;;;;42.48;44.74;162413.38;1665438;83;21262;-82
2021/05/28 07:37:24;;;;;;;9.33;8.20;;;;;;;42.94;43.62;162539.72;1670857;84;21250;-82
2021/05/28 07:39:56;;;;;;;11.88;8.98;;;;;;;42.95;43.58;162542.42;1668511;83;21250;-80
2021/05/28 07:42:29;;;;;;;10.00;8.90;;;;;;;43.27;42.87;162628.47;1667432;83;21855;-81
2021/05/28 07:45:01;;;;;;;9.28;8.30;;;;;;;43.20;42.80;162608.30;1669871;84;21250;-81
2021/05/28 07:47:34;;;;;;;13.72;8.75;;;;;;;43.05;42.80;162567.97;1664468;83;21840;-81
2021/05/28 07:50:09;;;;;;;9.45;8.48;;;;;;;42.96;42.93;162545.11;1665753;84;21218;-82
2021/05/28 07:52:42;;;;;;;12.40;9.15;;;;;;;43.10;42.67;162582.75;1668081;83;21509;-79
2021/05/28 07:55:14;;;;;;;10.55;8.70;;;;;;;43.53;41.85;162698.42;1663955;85;21543;-82
2021/05/28 07:57:47;;;;;;;11.48;9.50;;;;;;;43.35;42.02;162649.95;1664769;83;21261;-82
2021/05/28 08:00:19;;;;;;;10.75;9.20;;;;;;;43.35;42.03;162648.63;1677552;83;21241;-82
2021/05/28 08:02:52;;;;;;;10.72;9.55;;;;;;;43.33;42.08;162643.25;1689978;85;21337;-83
2021/05/28 08:05:24;;;;;;;12.35;9.30;;;;;;;43.37;42.05;162654.02;1689896;83;21491;-82
2021/05/28 08:07:56;;;;;;;12.13;9.95;;;;;;;43.60;41.84;162717.22;1681039;85;21246;-83
2021/05/28 08:10:35;;;;;;;10.25;8.90;;;;;;;43.82;41.70;162775.05;1657800;86;21257;-82
2021/05/28 08:13:12;;;;;;;11.95;8.95;;;;;;;43.73;41.74;162750.86;1657689;86;21242;-83
2021/05/28 08:15:45;;;;;;;10.70;8.78;;;;;;;43.65;41.81;162730.69;1657447;86;21790;-83
2021/05/28 08:18:19;;;;;;;10.15;8.70;;;;;;;43.77;41.59;162761.58;1679477;85;22418;-82
2021/05/28 08:20:51;;;;;;;11.75;9.23;;;;;;;44.13;41.13;162859.81;1657877;86;21729;-82
2021/05/28 08:23:23;;;;;;;10.00;8.20;;;;;;;43.87;41.43;162789.83;1659251;85;21246;-82
2021/05/28 08:25:55;;;;;;;12.35;9.55;;;;;;;43.96;40.92;162815.45;1679811;85;21266;-83
2021/05/28 08:28:28;;;;;;;11.05;8.40;;;;;;;43.91;41.03;162800.66;1685203;85;21233;-84
2021/05/28 08:31:00;;;;;;;9.80;8.43;;;;;;;43.84;41.32;162783.12;1706534;84;21173;-83
2021/05/28 08:33:33;;;;;;;11.10;8.15;;;;;;;44.38;40.83;162928.44;1708242;84;21235;-84
2021/05/28 08:36:06;;;;;;;9.68;8.60;;;;;;;44.46;40.71;162949.94;1708318;84;21239;-83
2021/05/28 08:38:39;;;;;;;11.53;8.73;;;;;;;44.60;40.38;162986.30;1708221;84;21192;-83
2021/05/28 08:41:11;;;;;;;9.95;8.83;;;;;;;44.12;41.17;162858.44;1708521;84;21718;-83
2021/05/28 08:43:44;;;;;;;8.58;7.78;;;;;;;44.57;40.61;162979.53;1708238;84;21220;-82
2021/05/28 08:46:17;;;;;;;11.65;9.55;;;;;;;44.63;40.19;162995.75;1708331;84;21250;-83
2021/05/28 08:48:56;;;;;;;10.88;9.20;;;;;;;44.59;40.05;162984.92;1708340;84;21247;-82
2021/05/28 08:51:24;;;;;;;10.40;8.55;;;;;;;44.55;39.92;162974.19;1708298;84;21251;-83
2021/05/28 08:53:57;;;;;;;9.48;7.97;;;;;;;44.41;39.90;162935.16;1708275;84;21211;-82
2021/05/28 08:56:35;;;;;;;9.65;7.67;;;;;;;44.42;40.02;162937.84;1708291;84;21228;-83
2021/05/28 08:59:08;;;;;;;10.10;7.70;;;;;;;44.16;40.66;162869.22;1708417;84;21195;-82
2021/05/28 09:01:40;;;;;;;8.93;7.15;;;;;;;44.46;39.88;162949.94;1708349;84;21164;-82
2021/05/28 09:04:13;;;;;;;8.53;7.53;;;;;;;44.40;39.71;162933.83;1679952;85;21830;-82
2021/05/28 09:06:46;;;;;;;12.20;8.03;;;;;;;44.37;39.79;162924.44;1679964;85;21429;-82
2021/05/28 09:09:20;;;;;;;9.58;8.68;;;;;;;44.47;39.45;162951.31;1686390;84;21370;-83
2021/05/28 09:12:08;;;;;;;8.93;8.05;;;;;;;44.10;39.79;162851.73;1708192;84;21189;-82
2021/05/28 09:14:36;;;;;;;;;;;;;;;44.67;38.90;163006.53;1710469;84;21259;-82
2021/05/28 09:17:10;;;;;;;9.13;7.65;;;;;;;44.60;38.96;162987.61;1708230;83;20200;-82
2021/05/28 09:19:44;;;;;;;8.85;7.67;;;;;;;44.66;38.78;163003.84;1708363;84;21263;-82
2021/05/28 09:22:19;;;;;;;8.28;7.25;;;;;;;44.66;38.47;163003.84;1667379;84;21207;-82
2021/05/28 09:24:52;;;;;;;8.45;7.28;;;;;;;44.57;38.50;162979.53;1708079;84;21191;-82
2021/05/28 09:27:37;;;;;;;8.98;7.50;;;;;;;44.47;38.55;162952.64;1644849;84;21266;-81
2021/05/28 09:30:17;;;;;;;8.80;7.25;;;;;;;44.67;38.68;163005.16;1706482;83;21726;-84
2021/05/28 09:32:50;;;;;;;9.68;7.75;;;;;;;44.78;39.04;163036.13;1673472;85;21903;-82
2021/05/28 09:35:22;;;;;;;7.65;6.90;;;;;;;44.80;39.04;163041.47;1662713;85;21206;-82
2021/05/28 09:37:54;;;;;;;8.03;7.22;;;;;;;44.83;39.01;163049.55;1684901;85;22320;-82
2021/05/28 09:40:30;;;;;;;7.87;7.10;;;;;;;44.83;39.01;163049.55;1657414;86;21228;-83
2021/05/28 09:43:05;;;;;;;8.03;7.28;;;;;;;44.77;38.87;163033.42;1682579;85;21206;-82
2021/05/28 09:45:39;;;;;;;8.43;7.47;;;;;;;45.08;38.42;163116.88;1683101;85;21380;-82
2021/05/28 09:48:23;;;;;;;9.40;7.80;;;;;;;45.04;38.46;163106.09;1682410;85;21309;-83
2021/05/28 09:50:59;;;;;;;7.85;7.08;;;;;;;45.17;38.44;163141.08;1685439;85;21396;-82
2021/05/28 09:53:42;;;;;;;8.53;7.67;;;;;;;44.93;38.73;163077.81;1684767;85;21690;-86
2021/05/28 09:56:34;;;;;;;10.70;8.55;;;;;;;45.06;38.64;163112.84;1678929;83;21404;-86
2021/05/28 09:59:08;;;;;;;9.00;7.78;;;;;;;45.33;37.94;163185.47;1661415;84;21356;-87
2021/05/28 10:02:01;;;;;;;9.03;8.00;;;;;;;45.33;37.94;163185.47;1660230;83;21207;-88
2021/05/28 10:04:34;;;;;;;9.58;6.72;;;;;;;45.45;37.51;163217.83;1659127;84;21444;-87
2021/05/28 10:07:07;;;;;;;8.48;7.30;;;;;;;45.31;37.35;163178.77;1662047;83;22188;-86
2021/05/28 10:09:40;;;;;;;7.40;6.70;;;;;;;45.27;37.45;163167.98;1658170;83;21194;-88
2021/05/28 10:12:14;;;;;;;7.75;7.00;;;;;;;45.36;37.43;163192.25;1667592;84;21799;-86
2021/05/28 10:14:49;;;;;;;8.65;7.35;;;;;;;45.06;37.60;163111.47;1663506;83;21396;-84
2021/05/28 10:17:22;;;;;;;8.78;7.90;;;;;;;45.06;37.60;163111.47;1663140;83;21392;-85
2021/05/28 10:19:54;;;;;;;9.98;7.67;;;;;;;45.37;37.43;163194.94;1665478;83;21337;-84
2021/05/28 10:22:27;;;;;;;8.78;7.33;;;;;;;45.30;37.54;163176.06;1666430;84;21903;-84
2021/05/28 10:25:10;;;;;;;8.38;7.40;;;;;;;45.33;37.22;163184.16;1658951;83;21416;-86
2021/05/28 10:27:38;;;;;;;9.70;7.85;;;;;;;45.02;37.16;163100.75;1659517;83;21333;-85
2021/05/28 10:30:14;;;;;;;10.32;7.80;;;;;;;45.35;37.33;163190.86;1669151;84;21776;-84
2021/05/28 10:33:18;;;;;;;8.60;7.20;;;;;;;45.35;37.33;163190.86;1664118;84;21395;-84
2021/05/28 10:35:58;;;;;;;8.40;7.50;;;;;;;44.61;38.35;162990.31;1670869;84;21911;-87
2021/05/28 10:38:41;;;;;;;9.20;7.62;;;;;;;45.35;37.57;163190.86;1669648;84;21214;-84
2021/05/28 10:41:21;;;;;;;8.93;7.35;;;;;;;45.54;37.28;163240.72;1671089;84;21783;-84
2021/05/28 10:44:01;;;;;;;7.42;6.72;;;;;;;45.72;37.06;163289.19;1672246;84;21261;-84
2021/05/28 10:46:34;;;;;;;9.68;7.35;;;;;;;45.82;36.99;163316.16;1677811;84;21249;-84
2021/05/28 10:49:09;;;;;;;9.33;7.33;;;;;;;45.82;36.85;163316.16;1669449;84;21344;-84
2021/05/28 10:51:48;;;;;;;9.38;6.83;;;;;;;45.83;36.93;163320.17;1677680;84;21242;-84
2021/05/28 10:54:25;;;;;;;7.40;6.33;;;;;;;45.84;36.82;163324.20;1675672;84;21230;-85
2021/05/28 10:56:57;;;;;;;6.87;6.17;;;;;;;45.86;36.71;163329.59;1675152;83;21256;-85
2021/05/28 10:59:30;;;;;;;7.70;6.95;;;;;;;45.96;36.56;163355.19;1674154;84;21265;-85
2021/05/28 11:02:03;;;;;;;9.08;7.37;;;;;;;45.99;36.49;163363.28;1622271;84;21314;-85
2021/05/28 11:04:44;;;;;;;7.95;7.15;;;;;;;46.00;36.23;163367.28;1676854;84;21233;-84
2021/05/28 11:07:16;;;;;;;9.65;7.80;;;;;;;45.87;36.43;163332.28;1673157;84;21352;-84
2021/05/28 11:09:53;;;;;;;8.35;7.03;;;;;;;45.89;35.78;163337.69;1678983;84;21201;-82
2021/05/28 11:12:39;;;;;;;8.23;7.40;;;;;;;45.89;35.78;163337.69;1672429;84;21438;-83
2021/05/28 11:15:16;;;;;;;10.00;7.30;;;;;;;45.94;36.08;163349.80;1676773;84;21396;-79
2021/05/28 11:18:02;;;;;;;7.20;6.50;;;;;;;46.02;36.09;163372.69;1678075;83;21277;-81
2021/05/28 11:20:39;;;;;;;6.95;6.20;;;;;;;46.16;36.01;163410.44;1673219;84;21249;-83
2021/05/28 11:23:16;;;;;;;6.72;6.12;;;;;;;46.22;35.72;163426.56;1673510;84;21689;-81
2021/05/28 11:25:52;;;;;;;6.60;6.00;;;;;;;46.22;35.72;163426.56;1678712;84;21817;-83
2021/05/28 11:28:25;;;;;;;6.15;5.15;;;;;;;46.31;35.48;163450.80;1677565;84;21403;-81
2021/05/28 11:31:02;;;;;;;7.97;5.70;;;;;;;46.47;35.37;163492.63;1671854;84;21359;-81
2021/05/28 11:33:43;;;;;;;6.10;5.60;;;;;;;46.52;34.94;163507.44;1674775;83;21826;-85
2021/05/28 11:36:31;;;;;;;7.08;5.72;;;;;;;46.39;35.00;163471.00;1680002;84;21346;-85
2021/05/28 11:39:19;;;;;;;6.45;5.78;;;;;;;46.39;35.00;163471.00;1690472;84;21185;-85
2021/05/28 11:42:04;;;;;;;7.70;5.45;;;;;;;46.37;34.97;163466.98;1695809;84;21254;-87
2021/05/28 11:44:37;;;;;;;5.55;5.03;;;;;;;46.35;35.50;163461.59;1684761;84;21724;-86
2021/05/28 11:47:11;;;;;;;4.83;4.42;;;;;;;46.35;35.50;163461.59;1685206;84;21236;-85
2021/05/28 11:49:44;;;;;;;5.92;5.30;;;;;;;46.44;35.47;163484.48;1686064;84;21457;-84